Wyoming, Illinois
Current Conditions -  °F | °C
As of 6:55 PM on Wednesday 17 Dec 2014 (Local Time) from KC75 Reporting Station
Clear Clear  
Wind Chill: -5°   Ceiling: Unl
Heat Index: -5°   Visibility: 10mi
Dew Point: -9°   Wind: 3mph
Humidity: 75%   Direction: 350°N
Pressure: 30.3"   Gusts: NA
Location:  41.06°N, 89.77°W
Report Text: KC75 180055Z AUTO 35003KT 10SM CLR M05/M08 A3030 RMK AO2 T10461085
Loading
Personal Weather Stations






























Interactive Weather Map New forecast layout! Learn more

10-Day Weather Forecast

Advertisements
Track Severe Weather on mobile